Seaside, OR

2:48 PM PDT on March 26, 2017 (GMT -0700)
Ocean Vista Dr | | Change Station

Elev 16 ft 45.98 °N, 123.93 °W | Updated 9 seconds ago

Rain
Rain
50.7 °F
Feels Like 50.7 °F
N
7.7
Wind Variable Wind from WNW
Gusts 10.4 mph

Today
High -- | Low -- °F
--% Chance of Precip.
Yesterday
High -- | Low -- °F
Precip. -- in
Pressure 29.71 in
Visibility 9.0 miles
Clouds Few 1700 ft
Mostly Cloudy 2400 ft
Overcast 3400 ft
Dew Point 48 °F
Humidity 91%
Rainfall 0.25 in
Snow Depth Not available.
7:06 AM 7:36 PM
Waning Crescent, 2% visible
METAR KAST 262055Z AUTO 19015G21KT 9SM -RA FEW017 BKN024 OVC034 09/07 A2971 RMK AO2 WSHFT 2029 RAB08 SLP060 P0000 60007 T00940067 58007
Pressure 29.71 in
Visibility 9.0 miles
Clouds Few 1700 ft
Mostly Cloudy 2400 ft
Overcast 3400 ft
Dew Point 48 °F
Humidity 91%
Rainfall 0.25 in
Snow Depth Not available.
7:06 AM 7:36 PM
Waning Crescent, 2% visible
METAR KAST 262055Z AUTO 19015G21KT 9SM -RA FEW017 BKN024 OVC034 09/07 A2971 RMK AO2 WSHFT 2029 RAB08 SLP060 P0000 60007 T00940067 58007

Get Severe Weather Alerts

Thanks for signing up!

Be on the lookout for a verification email in your inbox.

You'll start receiving the daily forecast at 8 AM.

×

10-Day Weather Forecast

Almanac

Astronomy

Mar. 26, 2017 Rise Set
Actual Time
Civil Twilight
Nautical Twilight
Astronomical Twilight
Moon
Length of Visible Light
Length of Day
Tomorrow will be .
, % of the Moon is Illuminated

Today's Extremes

State Highs State Lows

Community

WunderPhotos

Upload Photos

1,962,540 photos uploaded!

WunderBlog® & News

Nearby

Air Quality

  Air Quality AQ Index Pollutant
Not available.

Snow Depth

Station Depth Elevation

Earthquake Activity

City Distance Mag. Time & Date
Minimum magnitude displayed is 2.5.

Earthquake Activity

City Distance Mag. Time & Date
Minimum magnitude displayed is 2.5.

Coastal Water Temperatures

Place Temperature

Stations

Nearby Weather Stations

Station Location Temp. Windchill Dew Point Humidity Wind Precip. Elev Updated Type
                   

Watches & Warnings

There are currently no watches in effect.